Time;durP1;ratioP1;P1;durP2;ratioP2;P2;SDS_P1;SDS_P2;PMS_P1;PMS_P2;Temp;Humidity;BMP_temperature;BMP_pressure;BME280_temperature;BME280_humidity;BME280_pressure;Samples;Min_cycle;Max_cycle;Signal;HPM_P1;HPM_P2
2023/01/10 00:00:36;;;;;;;13.00;7.53;;;8.80;87.30;;;11.53;60.69;100690.41;5014566;28;20196;-54
2023/01/10 00:03:07;;;;;;;15.30;7.87;;;8.80;87.40;;;11.49;60.94;100699.69;5014108;28;20198;-54
2023/01/10 00:05:37;;;;;;;12.20;6.60;;;8.80;87.30;;;11.46;61.02;100706.13;5013936;28;20186;-52
2023/01/10 00:08:06;;;;;;;12.03;7.03;;;8.80;87.50;;;11.45;60.93;100714.22;5013526;28;20579;-54
2023/01/10 00:10:34;;;;;;;19.23;7.50;;;8.70;87.50;;;11.45;61.02;100727.41;5013835;28;20214;-52
2023/01/10 00:15:48;;;;;;;10.47;6.47;;;8.70;87.60;;;11.40;61.28;100735.84;5028749;28;20194;-54
2023/01/10 00:18:15;;;;;;;11.47;6.80;;;8.70;87.60;;;11.39;61.07;100733.38;5033643;28;20573;-54
2023/01/10 00:20:44;;;;;;;8.83;6.27;;;8.70;87.70;;;11.39;60.99;100736.03;5033917;28;20229;-54
2023/01/10 00:23:12;;;;;;;13.93;6.40;;;8.70;87.80;;;11.38;60.82;100750.22;5033359;28;20556;-53
2023/01/10 00:25:39;;;;;;;13.23;6.17;;;8.60;87.70;;;11.37;60.92;100744.13;5033669;28;20264;-54
2023/01/10 00:28:18;;;;;;;10.33;6.07;;;8.60;87.70;;;11.39;61.50;100757.09;5034246;28;20632;-54
2023/01/10 00:30:53;;;;;;;7.77;6.43;;;8.60;87.80;;;11.44;61.08;100770.56;5032249;28;20667;-55
2023/01/10 00:33:21;;;;;;;10.97;6.47;;;8.70;88.00;;;11.46;61.31;100769.38;5033895;28;20201;-53
2023/01/10 00:35:49;;;;;;;9.73;6.43;;;8.60;87.90;;;11.49;61.13;100779.56;5033262;28;20269;-57
2023/01/10 00:38:16;;;;;;;8.17;5.40;;;8.70;87.90;;;11.53;60.97;100782.66;5033745;28;20265;-54
2023/01/10 00:40:44;;;;;;;9.37;6.30;;;8.70;88.00;;;11.58;61.08;100789.03;5033699;28;20197;-54
2023/01/10 00:45:57;;;;;;;12.40;6.53;;;8.70;87.90;;;11.64;60.92;100791.97;5032733;28;20218;-53
2023/01/10 00:48:24;;;;;;;10.80;6.27;;;8.80;87.90;;;11.65;60.83;100794.41;5032607;28;20222;-55
2023/01/10 00:50:52;;;;;;;11.47;6.07;;;8.80;87.80;;;11.66;60.48;100798.69;5033253;28;20561;-55
2023/01/10 00:53:20;;;;;;;10.33;5.90;;;8.80;87.70;;;11.66;60.35;100808.41;5033212;28;20191;-54
2023/01/10 00:55:47;;;;;;;8.07;5.70;;;8.80;87.50;;;11.66;60.60;100813.69;5033071;28;20194;-53
2023/01/10 00:58:15;;;;;;;11.00;5.80;;;8.80;87.30;;;11.64;60.14;100813.88;5033260;28;20705;-55
2023/01/10 01:00:48;;;;;;;7.80;5.60;;;8.80;87.20;;;11.61;60.63;100824.78;5034042;28;20225;-53
2023/01/10 01:03:18;;;;;;;9.37;5.60;;;8.80;87.10;;;11.58;60.63;100825.94;5033931;28;20237;-56
2023/01/10 01:05:47;;;;;;;9.33;5.37;;;8.80;87.00;;;11.57;60.62;100834.03;5032696;28;20194;-56
2023/01/10 01:08:17;;;;;;;8.13;4.93;;;8.80;87.00;;;11.55;60.55;100841.31;5033582;28;20206;-53
2023/01/10 01:10:45;;;;;;;8.03;4.60;;;8.80;86.90;;;11.54;60.45;100839.66;5034402;28;20569;-54
2023/01/10 01:13:15;;;;;;;8.77;4.93;;;8.80;87.00;;;11.55;60.74;100842.09;5033094;28;20593;-56
2023/01/10 01:15:42;;;;;;;5.30;4.27;;;8.80;87.00;;;11.62;60.33;100851.97;5033413;28;20530;-56
2023/01/10 01:18:13;;;;;;;6.53;4.70;;;8.80;87.30;;;11.66;60.59;100853.22;5033237;28;20289;-54
2023/01/10 01:20:42;;;;;;;7.70;4.23;;;8.80;87.20;;;11.69;60.59;100853.75;5034623;28;20202;-54
2023/01/10 01:23:09;;;;;;;7.00;3.93;;;8.80;87.20;;;11.70;60.66;100868.53;5036787;28;20206;-53
2023/01/10 01:25:37;;;;;;;7.13;3.93;;;8.80;87.20;;;11.69;60.38;100872.19;5036370;28;20198;-54
2023/01/10 01:28:04;;;;;;;7.30;3.27;;;8.90;87.20;;;11.68;60.34;100881.09;5017049;28;20586;-56
2023/01/10 01:30:31;;;;;;;7.30;3.80;;;8.90;87.10;;;11.68;60.03;100886.38;5016791;28;20202;-56
2023/01/10 01:32:58;;;;;;;6.23;3.23;;;8.90;87.10;;;11.72;60.35;100903.47;5016993;28;20275;-56
2023/01/10 01:35:25;;;;;;;6.47;3.67;;;8.90;87.20;;;11.74;60.31;100906.75;5016980;28;20271;-54
2023/01/10 01:37:52;;;;;;;8.63;3.97;;;8.90;87.10;;;11.73;60.64;100905.09;5018251;28;20285;-57
2023/01/10 01:40:21;;;;;;;7.80;4.10;;;8.90;87.10;;;11.75;60.57;100908.38;5018776;28;20201;-55
2023/01/10 01:42:56;;;;;;;7.10;3.90;;;8.90;87.00;;;11.74;60.35;100917.31;5036747;28;20197;-55
2023/01/10 01:45:37;;;;;;;7.40;3.90;;;8.90;86.90;;;11.72;60.38;100927.19;5035898;28;20252;-53
2023/01/10 01:48:22;;;;;;;6.67;4.07;;;8.90;86.90;;;11.73;60.06;100931.47;5036269;28;20578;-54
2023/01/10 01:51:03;;;;;;;5.03;3.70;;;8.90;86.80;;;11.75;60.24;100933.94;5036314;28;20257;-57
2023/01/10 01:53:37;;;;;;;7.63;4.17;;;8.90;86.70;;;11.74;60.40;100945.50;5035019;28;20281;-55
2023/01/10 01:56:12;;;;;;;7.57;4.10;;;9.00;86.80;;;11.73;60.34;100951.75;5024850;28;20194;-55
2023/01/10 01:58:48;;;;;;;7.53;4.27;;;8.90;86.60;;;11.69;60.03;100947.84;5036081;28;20222;-54
2023/01/10 02:01:16;;;;;;;5.13;3.73;;;8.90;86.50;;;11.68;60.05;100959.34;5036338;28;20178;-55
2023/01/10 02:03:48;;;;;;;8.60;4.07;;;8.90;86.40;;;11.68;60.08;100959.34;5036340;28;20179;-52
2023/01/10 02:06:19;;;;;;;6.07;3.47;;;8.90;86.40;;;11.66;60.31;100970.06;5035844;28;20186;-53
2023/01/10 02:08:57;;;;;;;8.50;4.20;;;8.90;86.40;;;11.66;60.04;100967.41;5036088;28;20203;-53
2023/01/10 02:11:24;;;;;;;5.10;3.30;;;8.90;86.40;;;11.68;60.16;100976.00;5020957;28;20281;-55
2023/01/10 02:13:53;;;;;;;7.30;3.60;;;8.90;86.60;;;11.70;60.15;100975.81;5016115;28;20197;-53
2023/01/10 02:16:20;;;;;;;7.73;3.60;;;8.90;86.60;;;11.71;59.73;100975.66;5015730;28;20193;-55
2023/01/10 02:18:47;;;;;;;9.27;3.63;;;8.90;86.50;;;11.72;59.73;100974.66;5016104;28;20243;-53
2023/01/10 02:22:21;;;;;;;8.03;3.50;;;8.90;86.50;;;11.64;59.59;100979.97;5015723;28;20195;-54
2023/01/10 02:25:28;;;;;;;6.20;3.53;;;8.90;86.50;;;11.62;59.70;100987.22;5007134;28;20614;-58
2023/01/10 02:28:42;;;;;;;9.73;3.37;;;8.90;86.20;;;11.63;59.84;100986.22;5017024;28;20219;-54
2023/01/10 02:31:42;;;;;;;7.30;3.63;;;8.90;86.20;;;11.63;59.99;100986.22;5015471;28;20625;-53
2023/01/10 02:34:20;;;;;;;6.63;3.60;;;8.90;86.10;;;11.64;59.91;100987.88;5016955;28;20191;-52
2023/01/10 02:36:58;;;;;;;6.67;3.20;;;8.90;86.00;;;11.62;59.67;100995.16;5019656;28;20194;-56
2023/01/10 02:39:36;;;;;;;5.40;2.83;;;8.90;86.00;;;11.60;59.89;100994.47;5035830;28;20182;-55
2023/01/10 02:42:08;;;;;;;4.23;2.90;;;8.90;85.90;;;11.62;59.58;101000.41;5036002;28;20195;-55
2023/01/10 02:44:44;;;;;;;6.97;3.13;;;8.90;86.00;;;11.64;59.60;100993.16;5037713;28;20202;-54
2023/01/10 02:47:12;;;;;;;6.40;2.37;;;8.80;86.00;;;11.66;60.02;101001.69;5035168;28;20654;-54
2023/01/10 02:49:46;;;;;;;7.50;2.87;;;8.80;86.00;;;11.65;59.63;101000.03;5035007;28;20208;-57
2023/01/10 02:52:20;;;;;;;7.73;3.23;;;8.80;86.00;;;11.64;59.35;101003.69;5035339;28;20211;-52
2023/01/10 02:54:54;;;;;;;6.47;2.97;;;8.80;85.90;;;11.61;59.36;101004.03;5034977;28;20175;-53
2023/01/10 02:57:48;;;;;;;9.20;3.30;;;8.80;86.00;;;11.53;59.46;101012.81;5034682;28;20702;-54
2023/01/10 03:00:41;;;;;;;8.00;3.00;;;8.80;85.90;;;11.49;59.46;101015.97;5026164;28;20539;-54
2023/01/10 03:03:32;;;;;;;7.10;3.40;;;8.70;85.80;;;11.43;60.14;101020.09;5015452;28;20175;-53
2023/01/10 03:06:21;;;;;;;8.60;2.80;;;8.80;85.90;;;11.41;59.73;101021.31;5014846;28;20196;-56
2023/01/10 03:08:58;;;;;;;6.87;3.57;;;8.70;85.90;;;11.39;60.00;101021.44;5015406;28;20211;-55
2023/01/10 03:11:42;;;;;;;6.93;3.57;;;8.70;86.00;;;11.39;59.52;101026.72;5015206;28;20232;-54
2023/01/10 03:14:19;;;;;;;7.07;2.97;;;8.70;86.20;;;11.37;60.00;101019.97;5015208;28;20195;-53
2023/01/10 03:16:53;;;;;;;6.23;2.63;;;8.70;86.30;;;11.39;60.23;101037.25;5015044;28;20206;-56
2023/01/10 03:19:26;;;;;;;6.97;2.70;;;8.70;86.40;;;11.43;60.10;101043.81;5031154;28;20214;-53
2023/01/10 03:22:00;;;;;;;7.80;3.20;;;8.60;86.40;;;11.45;60.15;101041.88;5019091;28;20218;-54
2023/01/10 03:24:34;;;;;;;5.67;2.83;;;8.60;86.40;;;11.44;59.57;101047.28;5034595;28;20183;-54
2023/01/10 03:27:09;;;;;;;8.17;3.50;;;8.60;86.30;;;11.42;59.77;101047.47;5034193;28;20205;-56
2023/01/10 03:29:45;;;;;;;6.37;3.17;;;8.60;86.40;;;11.41;59.75;101056.34;5034522;28;20182;-54
2023/01/10 03:32:20;;;;;;;7.17;2.50;;;8.60;86.50;;;11.38;59.97;101055.91;5014632;28;20620;-56
2023/01/10 03:34:47;;;;;;;8.57;3.17;;;8.60;86.50;;;11.37;59.97;101054.25;5014652;28;20182;-54
2023/01/10 03:37:29;;;;;;;7.73;3.00;;;8.60;86.50;;;11.34;59.65;101062.47;5014391;28;20198;-54
2023/01/10 03:40:08;;;;;;;7.37;3.27;;;8.60;86.50;;;11.36;60.01;101069.22;5014675;28;20184;-53
2023/01/10 03:45:43;;;;;;;10.97;3.00;;;8.60;86.90;;;11.41;59.77;101087.97;5013692;28;20199;-54
2023/01/10 03:48:15;;;;;;;8.90;2.80;;;8.60;86.80;;;11.41;60.14;101100.38;5014114;28;20341;-56
2023/01/10 03:50:44;;;;;;;8.47;3.10;;;8.60;86.70;;;11.38;60.25;101103.34;5014336;28;20191;-56
2023/01/10 03:53:15;;;;;;;11.57;2.87;;;8.60;86.60;;;11.35;60.31;101111.56;5014067;28;20241;-55
2023/01/10 03:55:44;;;;;;;9.73;3.60;;;8.60;86.50;;;11.33;60.40;101111.75;5015154;28;20287;-55
2023/01/10 03:58:11;;;;;;;7.97;3.03;;;8.60;86.60;;;11.32;60.14;101114.53;5015785;28;20238;-53
2023/01/10 04:00:39;;;;;;;11.30;2.90;;;8.60;86.70;;;11.30;60.53;101116.53;5048725;28;20194;-53
2023/01/10 04:03:08;;;;;;;7.03;2.83;;;8.60;86.70;;;11.28;60.28;101123.78;5034069;28;20197;-53
2023/01/10 04:05:35;;;;;;;7.53;2.97;;;8.50;86.70;;;11.27;60.44;101128.22;5033392;28;20191;-55
2023/01/10 04:08:02;;;;;;;9.53;2.90;;;8.50;86.80;;;11.25;60.53;101130.22;5049080;28;20642;-53
2023/01/10 04:10:31;;;;;;;7.73;3.17;;;8.50;86.70;;;11.22;60.60;101124.47;5033618;28;20201;-54
2023/01/10 04:13:00;;;;;;;10.50;3.17;;;8.50;86.70;;;11.20;60.70;101136.97;5022097;28;20203;-54
2023/01/10 04:15:27;;;;;;;7.63;3.27;;;8.50;86.70;;;11.18;60.63;101138.94;5029955;28;20665;-53
2023/01/10 04:17:55;;;;;;;8.50;3.27;;;8.40;86.70;;;11.16;60.39;101139.13;5032179;28;20210;-56
2023/01/10 04:20:26;;;;;;;8.70;2.90;;;8.40;86.80;;;11.17;60.65;101140.75;5033628;28;20195;-55
2023/01/10 04:22:53;;;;;;;7.60;3.13;;;8.40;87.00;;;11.21;60.67;101144.72;5031981;28;20277;-56
2023/01/10 04:25:20;;;;;;;9.57;3.80;;;8.40;87.10;;;11.27;60.22;101153.75;5033129;28;20198;-55
2023/01/10 04:27:50;;;;;;;13.73;3.40;;;8.40;87.20;;;11.30;60.43;101153.41;5033347;28;20571;-53
2023/01/10 04:30:18;;;;;;;9.27;2.87;;;8.50;87.20;;;11.36;60.49;101163.28;5020837;28;20203;-52
2023/01/10 04:32:46;;;;;;;7.03;2.70;;;8.50;87.30;;;11.41;60.75;101163.63;5013653;28;20554;-54
2023/01/10 04:35:13;;;;;;;10.60;3.10;;;8.50;87.30;;;11.44;60.70;101165.88;5012888;28;20191;-52
2023/01/10 04:37:41;;;;;;;8.13;3.37;;;8.60;87.20;;;11.49;60.44;101161.75;5013466;28;20210;-56
2023/01/10 04:40:10;;;;;;;8.03;3.00;;;8.60;87.10;;;11.53;59.96;101165.69;5020279;28;20262;-54
2023/01/10 04:42:37;;;;;;;8.60;3.47;;;8.60;87.20;;;11.56;60.25;101165.38;5032933;28;20197;-53
2023/01/10 04:45:09;;;;;;;14.13;3.77;;;8.60;87.00;;;11.54;59.84;101172.63;5033116;28;20202;-53
2023/01/10 04:47:36;;;;;;;10.33;3.80;;;8.70;86.80;;;11.50;59.99;101175.78;5033327;28;20211;-54
2023/01/10 04:50:03;;;;;;;10.83;4.30;;;8.70;86.50;;;11.47;60.16;101181.38;5033667;28;20194;-52
2023/01/10 04:52:30;;;;;;;5.50;2.50;;;8.70;86.40;;;11.42;59.92;101178.41;5034248;28;20671;-52
2023/01/10 04:54:57;;;;;;;11.47;3.80;;;8.60;86.20;;;11.38;60.23;101187.66;5025706;28;20201;-54
2023/01/10 04:57:24;;;;;;;7.63;3.20;;;8.60;86.30;;;11.34;60.37;101186.34;5017292;28;20330;-53
2023/01/10 04:59:51;;;;;;;10.97;3.83;;;8.60;86.10;;;11.28;59.67;101187.03;5017292;28;20198;-55
2023/01/10 05:02:19;;;;;;;7.73;3.90;;;8.60;86.00;;;11.24;59.62;101191.81;5032076;28;20550;-53
2023/01/10 05:04:46;;;;;;;7.90;3.43;;;8.50;85.90;;;11.20;60.49;101195.75;5016670;28;20218;-55
2023/01/10 05:07:14;;;;;;;8.93;3.20;;;8.50;86.10;;;11.18;60.20;101202.19;5016946;28;20275;-56
2023/01/10 05:09:41;;;;;;;11.47;3.13;;;8.50;86.30;;;11.17;59.81;101203.19;5016651;28;20199;-53
2023/01/10 05:12:08;;;;;;;8.73;3.53;;;8.40;86.20;;;11.15;60.69;101208.59;5016622;28;20794;-52
2023/01/10 05:14:35;;;;;;;8.03;3.13;;;8.40;86.20;;;11.15;60.21;101218.34;5022883;28;20638;-54
2023/01/10 05:17:02;;;;;;;11.40;3.77;;;8.40;87.00;;;11.13;60.14;101228.19;5036484;28;20534;-52
2023/01/10 05:19:30;;;;;;;10.90;3.43;;;8.40;86.30;;;11.13;60.25;101226.41;5036368;28;20199;-54
2023/01/10 05:21:57;;;;;;;11.13;3.77;;;8.40;86.40;;;11.12;59.93;101234.47;5030247;28;20199;-55
2023/01/10 05:24:24;;;;;;;10.00;4.03;;;8.30;86.40;;;11.12;60.29;101237.09;5016256;28;20187;-53
2023/01/10 05:26:51;;;;;;;9.43;3.17;;;8.30;86.40;;;11.13;60.27;101239.56;5031307;28;20217;-52
2023/01/10 05:29:18;;;;;;;8.93;4.10;;;8.30;87.30;;;11.15;59.83;101234.94;5036409;28;20218;-56
2023/01/10 05:31:45;;;;;;;7.67;3.63;;;8.40;86.60;;;11.13;60.59;101254.53;5036593;28;20507;-55
2023/01/10 05:34:12;;;;;;;10.97;5.17;;;8.40;86.50;;;11.09;60.12;101253.22;5036246;28;20194;-53
2023/01/10 05:36:40;;;;;;;8.77;3.73;;;8.30;86.20;;;10.96;60.07;101255.56;5035640;28;20233;-53
2023/01/10 05:39:07;;;;;;;13.20;4.07;;;8.40;86.00;;;10.93;60.64;101263.78;5036495;28;20337;-53
2023/01/10 05:41:34;;;;;;;11.47;4.27;;;8.40;85.80;;;10.89;60.71;101266.72;5036392;28;20187;-53
2023/01/10 05:44:01;;;;;;;15.13;3.77;;;8.30;85.70;;;10.91;60.82;101268.38;5036191;28;20206;-54
2023/01/10 05:46:28;;;;;;;10.93;5.10;;;8.30;86.00;;;10.86;60.57;101266.25;5035694;28;20273;-54
2023/01/10 05:48:55;;;;;;;11.10;4.47;;;8.30;86.00;;;10.91;61.00;101278.91;5035915;28;20215;-56
2023/01/10 05:51:22;;;;;;;12.30;4.80;;;8.30;86.40;;;10.89;60.44;101277.25;5032756;28;20203;-55
2023/01/10 05:53:50;;;;;;;10.67;3.90;;;8.30;86.10;;;10.91;60.27;101281.56;5016305;28;20226;-54
2023/01/10 05:56:17;;;;;;;7.20;4.67;;;8.30;86.10;;;10.94;60.44;101283.84;5015606;28;20197;-55
2023/01/10 05:58:44;;;;;;;14.70;5.07;;;8.30;86.10;;;10.92;60.25;101275.28;5016370;28;20221;-54
2023/01/10 06:01:15;;;;;;;11.80;4.27;;;8.30;85.90;;;10.92;59.98;101291.09;5016274;28;20182;-54
2023/01/10 06:03:43;;;;;;;11.37;3.90;;;8.30;86.00;;;11.02;60.90;101292.59;5016025;28;20187;-54
2023/01/10 06:06:10;;;;;;;16.73;4.00;;;8.30;86.20;;;11.05;60.17;101296.72;5015215;28;20199;-55
2023/01/10 06:08:37;;;;;;;8.17;3.63;;;8.30;86.10;;;11.14;60.44;101298.34;5016085;28;20582;-55
2023/01/10 06:11:06;;;;;;;10.27;3.80;;;8.40;86.30;;;11.21;59.68;101292.25;5039665;28;20198;-52
2023/01/10 06:13:33;;;;;;;12.20;3.43;;;8.40;86.20;;;11.28;59.96;101303.78;5035280;28;20678;-58
2023/01/10 06:16:00;;;;;;;8.40;4.10;;;8.40;86.20;;;11.31;59.47;101302.63;5035207;28;20190;-53
2023/01/10 06:18:27;;;;;;;10.23;4.57;;;8.50;86.00;;;11.32;59.81;101304.28;5034852;28;20241;-54
2023/01/10 06:20:54;;;;;;;11.33;4.33;;;8.50;86.00;;;11.33;59.79;101314.66;5035221;28;20365;-60
2023/01/10 06:23:21;;;;;;;10.50;4.33;;;8.50;85.80;;;11.38;59.54;101314.16;5018465;28;20210;-55
2023/01/10 06:25:48;;;;;;;12.40;4.77;;;8.50;85.90;;;11.44;59.55;101316.13;5015215;28;20542;-54
2023/01/10 06:28:16;;;;;;;9.93;4.70;;;8.60;85.80;;;11.46;59.35;101322.88;5014922;28;20215;-55
2023/01/10 06:30:43;;;;;;;8.77;3.90;;;8.60;85.60;;;11.50;59.61;101336.56;5014972;28;20245;-54
2023/01/10 06:33:11;;;;;;;12.87;5.37;;;8.60;85.60;;;11.55;59.00;101331.63;5037682;28;20214;-56
2023/01/10 06:35:39;;;;;;;9.13;5.53;;;8.60;85.30;;;11.53;59.47;101330.94;5041313;28;20210;-55
2023/01/10 06:38:06;;;;;;;12.33;5.03;;;8.70;85.30;;;11.45;58.99;101329.16;5035512;28;20693;-55
2023/01/10 06:40:33;;;;;;;10.37;3.60;;;8.70;84.80;;;11.41;58.71;101327.03;5035771;28;20266;-55
2023/01/10 06:43:00;;;;;;;12.80;3.70;;;8.70;84.60;;;11.35;59.17;101343.47;5050701;28;20261;-55
2023/01/10 06:45:28;;;;;;;13.07;4.53;;;8.70;84.60;;;11.39;59.54;101337.72;5030168;28;20195;-53
2023/01/10 06:47:55;;;;;;;12.63;4.03;;;8.70;84.50;;;11.43;59.15;101339.03;5014521;28;20683;-54
2023/01/10 06:50:23;;;;;;;6.93;4.00;;;8.70;84.50;;;11.41;58.89;101345.47;5016278;28;20217;-53
2023/01/10 06:52:55;;;;;;;14.73;5.27;;;8.80;84.50;;;11.46;58.87;101343.97;5015014;28;20697;-56
2023/01/10 06:55:23;;;;;;;8.17;3.73;;;8.70;84.80;;;11.53;59.01;101358.13;5017597;28;20179;-55
2023/01/10 06:57:55;;;;;;;12.47;4.50;;;8.80;85.00;;;11.60;58.74;101360.91;5033964;28;20214;-54
2023/01/10 07:00:23;;;;;;;9.13;3.30;;;8.80;84.80;;;11.65;58.56;101366.53;5021692;28;20251;-57
2023/01/10 07:02:53;;;;;;;11.90;3.93;;;8.80;84.60;;;11.66;58.81;101365.56;5014705;28;20187;-55
2023/01/10 07:05:20;;;;;;;12.77;4.17;;;8.80;84.60;;;11.67;58.51;101369.81;5021789;28;20542;-57
2023/01/10 07:07:47;;;;;;;10.77;4.40;;;8.80;84.60;;;11.69;58.45;101375.81;5025041;28;20705;-55
2023/01/10 07:10:15;;;;;;;8.83;3.17;;;8.80;85.30;;;11.71;58.48;101373.81;5026390;28;20554;-55
2023/01/10 07:12:41;;;;;;;8.73;3.60;;;8.90;84.70;;;11.74;59.00;101378.78;5032033;28;20222;-55
2023/01/10 07:15:09;;;;;;;7.23;4.00;;;8.80;84.70;;;11.69;58.50;101375.81;5025436;28;20581;-54
2023/01/10 07:17:36;;;;;;;8.07;3.50;;;8.90;84.30;;;11.67;58.53;101380.38;5021243;28;20223;-55
2023/01/10 07:20:07;;;;;;;10.63;3.90;;;8.90;84.40;;;11.70;58.79;101381.88;5028893;28;20225;-55
2023/01/10 07:22:34;;;;;;;8.93;3.70;;;8.90;84.40;;;11.66;58.64;101381.38;5028940;28;20270;-55
2023/01/10 07:25:02;;;;;;;10.87;3.83;;;8.90;84.20;;;11.61;58.58;101381.03;5023662;28;20186;-56
2023/01/10 07:27:30;;;;;;;10.00;4.50;;;8.90;84.00;;;11.55;58.70;101393.06;5026780;28;20661;-55
2023/01/10 07:29:58;;;;;;;5.57;3.63;;;8.90;84.00;;;11.50;58.66;101398.00;5023952;28;20620;-55
2023/01/10 07:32:26;;;;;;;7.80;4.17;;;8.80;84.00;;;11.46;58.48;101396.69;5014848;28;20191;-54
2023/01/10 07:34:54;;;;;;;10.87;4.40;;;8.80;84.10;;;11.42;58.46;101397.19;5016026;28;20213;-57
2023/01/10 07:37:23;;;;;;;8.00;4.03;;;8.70;84.00;;;11.36;58.57;101398.66;5020218;28;20211;-57
2023/01/10 07:39:51;;;;;;;15.40;5.43;;;8.70;84.10;;;11.36;59.15;101400.47;5030953;28;20209;-57
2023/01/10 07:42:18;;;;;;;10.60;4.57;;;8.70;84.40;;;11.33;58.99;101406.06;5037989;28;20202;-55
2023/01/10 07:44:45;;;;;;;15.20;5.20;;;8.70;84.50;;;11.31;59.29;101408.88;5039148;28;20315;-57
2023/01/10 07:47:15;;;;;;;10.73;5.00;;;8.60;84.40;;;11.29;59.01;101416.09;5036474;28;20285;-56
2023/01/10 07:49:42;;;;;;;12.13;4.40;;;8.60;84.80;;;11.28;59.24;101418.91;5016054;28;20219;-55
2023/01/10 07:52:09;;;;;;;16.23;7.93;;;8.60;84.90;;;11.25;59.47;101419.22;5030914;28;20194;-54
2023/01/10 07:54:37;;;;;;;11.47;5.53;;;8.50;84.80;;;11.23;59.31;101431.75;5012414;28;20219;-55
2023/01/10 07:57:04;;;;;;;8.67;5.10;;;8.50;84.80;;;11.21;59.43;101436.34;5012767;28;20581;-56
2023/01/10 07:59:31;;;;;;;13.03;6.63;;;8.50;84.80;;;11.18;59.66;101440.13;5014205;28;20217;-54
2023/01/10 08:01:58;;;;;;;11.23;5.13;;;8.50;85.10;;;11.17;59.78;101449.00;5014493;28;20230;-55
2023/01/10 08:04:25;;;;;;;13.20;5.37;;;8.50;85.90;;;11.24;59.55;101455.31;5030423;28;20236;-53
2023/01/10 08:06:53;;;;;;;9.17;5.03;;;8.50;85.30;;;11.34;59.39;101463.03;5030397;28;20191;-56
2023/01/10 08:09:20;;;;;;;11.00;5.73;;;8.50;85.80;;;11.34;59.07;101468.31;5023951;28;20218;-54
2023/01/10 08:11:48;;;;;;;16.47;9.70;;;8.50;85.30;;;11.39;59.18;101463.38;5034645;28;20197;-56
2023/01/10 08:14:15;;;;;;;13.33;5.80;;;8.60;85.40;;;11.30;59.63;101438.84;5030275;28;20226;-54
2023/01/10 08:16:42;;;;;;;14.27;6.10;;;8.60;85.80;;;11.32;59.43;101422.84;5012639;28;20664;-54
2023/01/10 08:19:13;;;;;;;14.17;5.47;;;8.60;84.90;;;11.27;59.28;101427.78;5013734;28;20225;-55
2023/01/10 08:21:40;;;;;;;13.50;5.90;;;8.70;84.90;;;11.38;59.47;101430.13;5026833;28;20705;-55
2023/01/10 08:24:08;;;;;;;13.77;5.70;;;8.70;85.20;;;11.44;59.34;101421.56;5034067;28;20209;-54
2023/01/10 08:26:35;;;;;;;12.93;6.10;;;8.80;85.10;;;11.37;59.51;101428.47;5032923;28;20189;-54
2023/01/10 08:29:04;;;;;;;11.90;6.43;;;8.70;84.60;;;11.36;59.53;101429.47;5032882;28;20693;-55
2023/01/10 08:31:31;;;;;;;10.70;5.90;;;8.70;84.50;;;11.37;59.27;101429.31;5031358;28;20696;-56
2023/01/10 08:33:58;;;;;;;10.77;5.30;;;8.80;84.60;;;11.39;59.67;101442.31;5023535;28;20221;-56
2023/01/10 08:36:25;;;;;;;9.67;5.07;;;8.80;84.60;;;11.43;59.62;101438.38;5023012;28;20206;-57
2023/01/10 08:38:54;;;;;;;13.10;6.27;;;8.80;84.60;;;11.50;59.03;101444.66;5035114;28;20214;-57
2023/01/10 08:41:23;;;;;;;14.00;8.57;;;8.80;84.80;;;11.54;59.39;101445.97;5038906;28;20194;-55
2023/01/10 08:43:51;;;;;;;10.40;5.37;;;8.80;84.80;;;11.56;59.27;101458.00;5030092;28;20654;-55
2023/01/10 08:46:19;;;;;;;10.03;5.47;;;8.80;84.70;;;11.64;59.49;101466.91;5031273;28;20217;-57
2023/01/10 08:48:49;;;;;;;10.97;5.17;;;8.90;85.00;;;11.70;59.04;101469.72;5020602;28;20211;-57
2023/01/10 08:51:16;;;;;;;16.50;6.00;;;8.90;84.80;;;11.63;58.98;101476.63;5025394;28;20536;-56
2023/01/10 08:53:43;;;;;;;16.73;5.63;;;8.90;84.70;;;11.71;58.71;101478.47;5030682;28;20210;-54
2023/01/10 08:56:10;;;;;;;11.97;4.97;;;8.90;84.60;;;11.75;58.64;101480.63;5021764;28;20305;-52
2023/01/10 08:58:37;;;;;;;11.93;4.83;;;9.00;84.60;;;11.80;58.66;101480.94;5026272;28;20226;-55
2023/01/10 09:01:06;;;;;;;15.30;7.80;;;9.00;84.60;;;11.90;59.02;101494.81;5032345;28;20684;-55
2023/01/10 09:03:34;;;;;;;12.87;5.20;;;9.00;84.80;;;11.97;58.40;101495.81;5032309;28;20278;-53
2023/01/10 09:06:02;;;;;;;12.33;5.17;;;9.10;84.60;;;12.07;58.36;101499.09;5029010;28;20269;-56
2023/01/10 09:08:29;;;;;;;14.27;5.37;;;9.10;84.60;;;12.14;58.21;101496.63;5030931;28;20628;-57
2023/01/10 09:10:58;;;;;;;11.37;5.73;;;9.20;84.40;;;12.14;58.15;101478.97;5029028;28;20214;-56
2023/01/10 09:13:25;;;;;;;13.80;5.63;;;9.20;84.10;;;12.10;58.00;101490.84;5016051;28;20203;-54
2023/01/10 09:15:52;;;;;;;15.27;4.93;;;9.20;83.80;;;12.00;57.93;101490.22;5013092;28;20199;-57
2023/01/10 09:18:20;;;;;;;9.30;4.67;;;9.30;83.50;;;12.02;57.76;101482.94;5013612;28;20301;-57
2023/01/10 09:20:50;;;;;;;11.87;4.30;;;9.20;83.50;;;12.06;57.90;101492.16;5025459;28;20245;-56
2023/01/10 09:23:19;;;;;;;10.07;4.30;;;9.30;83.80;;;12.07;57.96;101499.09;5017522;28;20195;-56
2023/01/10 09:25:49;;;;;;;11.33;5.50;;;9.30;83.80;;;12.07;57.87;101495.63;5010961;28;20205;-55
2023/01/10 09:28:18;;;;;;;11.33;4.43;;;9.30;83.70;;;12.09;58.01;101497.13;5012702;28;20215;-54
2023/01/10 09:30:45;;;;;;;13.00;5.43;;;9.30;83.80;;;12.10;57.68;101511.13;5013202;28;20192;-55
2023/01/10 09:33:13;;;;;;;8.47;4.07;;;9.30;83.70;;;12.08;57.79;101506.00;5012779;28;20211;-55
2023/01/10 09:35:42;;;;;;;12.83;5.37;;;9.30;83.60;;;12.13;58.12;101509.00;5021820;28;20198;-54
2023/01/10 09:38:14;;;;;;;11.10;6.00;;;9.30;83.80;;;12.19;58.02;101510.94;5025885;28;20232;-55
2023/01/10 09:41:31;;;;;;;11.43;4.87;;;9.30;84.10;;;12.26;58.03;101507.66;5026344;28;20183;-57
2023/01/10 09:44:07;;;;;;;11.40;4.97;;;9.40;84.20;;;12.28;57.89;101513.59;5035172;28;20207;-55
2023/01/10 09:46:52;;;;;;;7.07;4.33;;;9.40;83.60;;;12.32;57.61;101510.47;5035466;28;20285;-54
2023/01/10 09:49:40;;;;;;;11.53;5.67;;;9.50;83.60;;;12.40;57.48;101507.81;5035396;28;20234;-58
2023/01/10 09:52:20;;;;;;;12.33;5.47;;;9.50;83.70;;;12.45;57.75;101509.94;5035558;28;20198;-53
2023/01/10 09:54:54;;;;;;;11.03;5.17;;;9.60;83.70;;;12.58;57.57;101512.88;5032452;28;20211;-54
2023/01/10 09:57:22;;;;;;;10.97;5.30;;;9.70;83.80;;;12.65;57.44;101511.22;5021227;28;20307;-54
2023/01/10 09:59:52;;;;;;;10.10;4.57;;;9.70;83.50;;;12.79;57.40;101518.44;5015981;28;20202;-54
2023/01/10 10:02:31;;;;;;;9.77;4.67;;;9.80;83.70;;;12.93;57.28;101523.06;5015686;28;20203;-55
2023/01/10 10:05:10;;;;;;;9.73;5.07;;;9.90;83.90;;;13.03;56.83;101525.47;5016391;28;20568;-54
2023/01/10 10:07:38;;;;;;;11.73;6.57;;;10.00;82.40;;;13.08;56.47;101523.16;5026497;28;20224;-56
2023/01/10 10:10:17;;;;;;;8.60;5.20;;;10.10;81.70;;;13.10;56.43;101537.84;5035745;28;20260;-53
2023/01/10 10:13:00;;;;;;;12.73;5.20;;;10.10;81.40;;;13.11;56.05;101528.13;5035658;28;20171;-54
2023/01/10 10:15:40;;;;;;;14.27;5.63;;;10.10;81.20;;;12.97;55.92;101542.84;5035782;28;20174;-54
2023/01/10 10:18:24;;;;;;;13.90;5.80;;;10.10;80.70;;;12.87;56.35;101536.91;5035384;28;20218;-52
2023/01/10 10:21:02;;;;;;;15.87;6.63;;;10.10;80.70;;;12.82;56.43;101529.50;5035430;28;20643;-54
2023/01/10 10:23:47;;;;;;;11.00;5.27;;;10.10;80.60;;;12.82;56.68;101549.81;5035312;28;20203;-53
2023/01/10 10:26:27;;;;;;;14.87;5.90;;;10.10;80.80;;;12.85;56.52;101544.19;5035360;28;20194;-54
2023/01/10 10:29:43;;;;;;;14.07;6.83;;;10.00;80.80;;;12.83;56.58;101546.19;5035425;28;20285;-55
2023/01/10 10:32:34;;;;;;;13.50;7.00;;;10.00;80.80;;;12.78;56.79;101551.97;5026573;28;20180;-56
2023/01/10 10:35:11;;;;;;;13.80;6.33;;;10.00;80.90;;;12.84;56.59;101558.38;5015670;28;20200;-57
2023/01/10 10:37:43;;;;;;;17.03;6.63;;;10.00;81.00;;;12.86;56.56;101553.75;5017863;28;20270;-54
2023/01/10 10:40:19;;;;;;;12.73;6.33;;;10.00;81.20;;;12.84;56.33;101547.81;5016028;28;20188;-55